Time;durP1;ratioP1;P1;durP2;ratioP2;P2;SDS_P1;SDS_P2;PMS_P1;PMS_P2;Temp;Humidity;BMP_temperature;BMP_pressure;BME280_temperature;BME280_humidity;BME280_pressure;Samples;Min_cycle;Max_cycle;Signal;HPM_P1;HPM_P2
2023/01/11 00:00:44;;;;;;;15.20;5.70;;;;;;;-4.81;100.00;100738.41;103982;1262;75290;-61
2023/01/11 00:03:11;;;;;;;12.80;5.50;;;;;;;-4.79;100.00;100740.85;104313;1274;72149;-61
2023/01/11 00:05:42;;;;;;;15.60;6.20;;;;;;;-4.79;100.00;100749.60;104348;1257;75279;-61
2023/01/11 00:08:09;;;;;;;20.00;5.40;;;;;;;-4.78;100.00;100753.88;104480;1259;61502;-63
2023/01/11 00:10:36;;;;;;;14.70;4.80;;;;;;;-4.78;100.00;100760.74;104398;1266;60303;-60
2023/01/11 00:13:03;;;;;;;11.50;5.60;;;;;;;-4.77;100.00;100762.65;104282;1257;72178;-60
2023/01/11 00:15:31;;;;;;;10.70;5.50;;;;;;;-4.71;100.00;100761.00;104247;1257;70599;-61
2023/01/11 00:17:58;;;;;;;15.70;5.50;;;;;;;-4.74;100.00;100755.77;104429;1267;72455;-61
2023/01/11 00:20:25;;;;;;;12.50;5.50;;;;;;;-4.75;100.00;100755.90;104228;1266;61063;-62
2023/01/11 00:22:52;;;;;;;9.90;5.00;;;;;;;-4.73;100.00;100752.56;104307;1253;62125;-60
2023/01/11 00:25:19;;;;;;;10.50;4.60;;;;;;;-4.74;100.00;100752.67;104358;1257;73900;-60
2023/01/11 00:27:48;;;;;;;10.60;4.30;;;;;;;-4.73;100.00;100752.86;104406;1257;69807;-61
2023/01/11 00:30:16;;;;;;;12.90;5.00;;;;;;;-4.71;100.00;100759.27;104369;1257;73108;-61
2023/01/11 00:32:43;;;;;;;11.50;4.80;;;;;;;-4.68;100.00;100755.44;104414;1261;60823;-61
2023/01/11 00:35:10;;;;;;;13.50;4.10;;;;;;;-4.68;100.00;100749.98;104342;1267;62660;-61
2023/01/11 00:37:38;;;;;;;10.00;4.30;;;;;;;-4.69;100.00;100749.27;104330;1251;74343;-62
2023/01/11 00:40:06;;;;;;;18.60;5.10;;;;;;;-4.69;100.00;100748.41;104259;1273;70964;-61
2023/01/11 00:48:15;;;;;;;9.70;4.80;;;;;;;-4.73;100.00;100743.80;104021;1264;60715;-62
2023/01/11 00:50:42;;;;;;;17.20;5.00;;;;;;;-4.75;100.00;100741.16;104363;1251;72371;-61
2023/01/11 00:53:09;;;;;;;12.40;5.10;;;;;;;-4.79;100.00;100743.41;104360;1256;69520;-61
2023/01/11 00:55:36;;;;;;;11.10;4.20;;;;;;;-4.79;100.00;100748.58;104423;1257;72794;-61
2023/01/11 00:58:03;;;;;;;15.30;5.10;;;;;;;-4.76;100.00;100752.95;104335;1260;60337;-61
2023/01/11 01:00:30;;;;;;;10.90;4.70;;;;;;;-4.75;100.00;100748.55;104488;1254;59724;-63
2023/01/11 01:02:57;;;;;;;18.70;5.00;;;;;;;-4.74;100.00;100747.73;104308;1258;72577;-62
2023/01/11 01:05:25;;;;;;;12.60;5.60;;;;;;;-4.73;100.00;100750.66;104400;1259;69336;-62
2023/01/11 01:07:52;;;;;;;11.00;4.70;;;;;;;-4.74;100.00;100756.63;104366;1257;75646;-62
2023/01/11 01:10:19;;;;;;;13.00;4.90;;;;;;;-4.75;100.00;100757.58;104292;1259;61965;-61
2023/01/11 01:15:32;;;;;;;17.90;4.40;;;;;;;-4.85;100.00;100759.10;104297;1253;72850;-62
2023/01/11 01:18:00;;;;;;;8.60;3.90;;;;;;;-4.88;100.00;100752.15;104451;1259;69975;-61
2023/01/11 01:20:26;;;;;;;13.80;4.10;;;;;;;-4.91;100.00;100754.61;104564;1264;72937;-62
2023/01/11 01:22:54;;;;;;;10.50;4.60;;;;;;;-4.92;100.00;100760.41;104397;1254;61826;-65
2023/01/11 01:25:21;;;;;;;12.70;4.40;;;;;;;-4.90;100.00;100764.05;104491;1254;60723;-61
2023/01/11 01:27:48;;;;;;;11.40;4.60;;;;;;;-4.89;100.00;100759.98;104388;1267;73219;-62
2023/01/11 01:30:15;;;;;;;9.40;4.20;;;;;;;-4.89;100.00;100762.02;104428;1257;69207;-64
2023/01/11 01:32:42;;;;;;;9.40;4.80;;;;;;;-4.89;100.00;100765.96;104289;1265;74044;-62
2023/01/11 01:35:09;;;;;;;13.90;4.50;;;;;;;-4.90;100.00;100766.98;104362;1260;62374;-62
2023/01/11 01:37:36;;;;;;;12.70;4.30;;;;;;;-4.97;100.00;100774.40;104369;1253;62635;-62
2023/01/11 01:40:05;;;;;;;10.70;4.20;;;;;;;-4.98;100.00;100775.87;104445;1252;73265;-63
2023/01/11 01:42:32;;;;;;;13.10;4.70;;;;;;;-4.97;100.00;100774.73;104375;1251;72344;-62
2023/01/11 01:45:05;;;;;;;11.50;4.90;;;;;;;-4.94;100.00;100772.80;104350;1256;75294;-61
2023/01/11 01:47:37;;;;;;;8.90;4.90;;;;;;;-4.93;100.00;100773.34;104327;1254;60394;-62
2023/01/11 06:50:28;;;;;;;4.80;2.20;;;;;;;-8.48;100.00;100902.84;102326;1291;600862;-61
2023/01/11 06:52:57;;;;;;;3.80;2.60;;;;;;;-8.12;100.00;100911.88;103708;1269;62246;-61
2023/01/11 06:55:25;;;;;;;4.10;2.60;;;;;;;-7.96;100.00;100904.54;103527;1264;61305;-62
2023/01/11 06:57:52;;;;;;;7.50;4.20;;;;;;;-7.82;100.00;100906.95;103550;1264;72223;-62
2023/01/11 07:00:23;;;;;;;7.10;4.20;;;;;;;-7.71;100.00;100904.60;103471;1277;69651;-62
2023/01/11 07:02:51;;;;;;;5.60;4.00;;;;;;;-7.61;100.00;100900.04;103532;1282;72983;-62
2023/01/11 07:05:23;;;;;;;5.40;3.90;;;;;;;-7.55;100.00;100892.63;103802;1275;62519;-63
2023/01/11 07:07:51;;;;;;;7.70;4.50;;;;;;;-7.50;100.00;100885.90;103907;1272;60741;-67
2023/01/11 07:10:19;;;;;;;13.20;3.90;;;;;;;-7.49;100.00;100877.96;104270;1271;74401;-65
2023/01/11 07:12:47;;;;;;;7.10;4.40;;;;;;;-7.49;100.00;100872.85;104411;1251;70187;-62
2023/01/11 07:15:15;;;;;;;6.10;4.90;;;;;;;-7.49;100.00;100870.48;104395;1272;72983;-63
2023/01/11 07:17:43;;;;;;;6.00;4.20;;;;;;;-7.51;100.00;100869.52;104275;1269;61272;-61
2023/01/11 07:20:11;;;;;;;7.50;4.40;;;;;;;-7.52;100.00;100871.85;104624;1251;60910;-62
2023/01/11 07:22:41;;;;;;;7.80;4.40;;;;;;;-7.52;100.00;100867.60;104389;1259;74244;-61
2023/01/11 07:25:09;;;;;;;9.30;5.30;;;;;;;-7.52;100.00;100868.77;104377;1258;68987;-62
2023/01/11 07:27:36;;;;;;;5.80;4.40;;;;;;;-7.52;100.00;100863.70;104396;1260;72447;-64
2023/01/11 07:30:04;;;;;;;8.30;4.10;;;;;;;-7.47;100.00;100872.09;104417;1266;61135;-62
2023/01/11 07:32:35;;;;;;;9.60;4.30;;;;;;;-7.47;100.00;100876.23;104278;1267;60098;-62
2023/01/11 07:35:03;;;;;;;4.90;4.20;;;;;;;-7.41;100.00;100878.70;104281;1258;74004;-63
2023/01/11 07:37:34;;;;;;;9.00;4.20;;;;;;;-7.38;100.00;100884.29;104481;1257;70423;-66
2023/01/11 07:40:05;;;;;;;10.20;4.40;;;;;;;-7.37;100.00;100883.15;104359;1257;73104;-63
2023/01/11 07:45:21;;;;;;;8.30;5.40;;;;;;;-7.26;100.00;100900.38;104336;1251;60329;-62
2023/01/11 07:47:55;;;;;;;7.00;4.50;;;;;;;-7.21;100.00;100906.40;104241;1263;73335;-63
2023/01/11 07:50:23;;;;;;;7.00;4.50;;;;;;;-7.16;100.00;100907.86;104211;1260;69875;-62
2023/01/11 07:52:50;;;;;;;7.40;4.50;;;;;;;-7.14;100.00;100908.66;104382;1253;74590;-63
2023/01/11 07:55:18;;;;;;;6.10;4.00;;;;;;;-7.14;100.00;100909.48;104484;1253;61468;-62
2023/01/11 07:57:45;;;;;;;16.00;5.50;;;;;;;-7.14;100.00;100908.98;104555;1251;61026;-63
2023/01/11 08:03:47;;;;;;;9.80;4.80;;;;;;;-7.40;100.00;100913.70;102249;1295;602125;-67
2023/01/11 08:10:20;;;;;;;6.40;4.00;;;;;;;-7.13;100.00;100913.61;102498;1283;62607;-65
2023/01/11 08:15:41;;;;;;;9.20;4.40;;;;;;;-7.05;100.00;100916.75;102965;1276;69170;-66
2023/01/11 08:18:10;;;;;;;7.30;4.60;;;;;;;-6.96;100.00;100913.77;102860;1274;197146;-68
2023/01/11 08:20:38;;;;;;;10.00;4.60;;;;;;;-6.81;100.00;100921.27;103310;1267;60689;-64
2023/01/11 08:23:08;;;;;;;10.60;5.20;;;;;;;-6.77;100.00;100925.73;103500;1277;61783;-65
2023/01/11 08:25:35;;;;;;;6.80;4.70;;;;;;;-6.75;100.00;100921.77;104147;1264;74863;-63
2023/01/11 08:28:04;;;;;;;9.00;4.10;;;;;;;-6.73;100.00;100916.57;104021;1267;71477;-65
2023/01/11 08:30:32;;;;;;;8.10;4.30;;;;;;;-6.73;100.00;100916.76;103701;1265;75266;-62
2023/01/11 08:33:00;;;;;;;9.70;4.20;;;;;;;-6.72;100.00;100918.16;103495;1271;64002;-62
2023/01/11 08:35:28;;;;;;;13.90;5.20;;;;;;;-6.67;100.00;100918.41;103519;1270;62488;-65
2023/01/11 08:37:55;;;;;;;;;;;;;;;-6.56;100.00;100905.24;104109;1264;72554;-65
2023/01/11 08:40:24;;;;;;;;;;;;;;;-6.52;100.00;100913.60;104038;1283;69625;-64
2023/01/11 08:42:58;;;;;;;8.10;4.60;;;;;;;-6.54;100.00;100913.86;103735;1267;73333;-67
2023/01/11 08:45:26;;;;;;;5.80;4.10;;;;;;;-6.59;100.00;100905.29;103137;1286;61687;-67
2023/01/11 08:47:55;;;;;;;11.30;4.50;;;;;;;-6.60;100.00;100889.89;103338;1280;61527;-68
2023/01/11 08:50:22;;;;;;;18.40;5.10;;;;;;;-6.62;100.00;100885.85;103346;1269;73404;-64
2023/01/11 08:52:51;;;;;;;8.60;4.90;;;;;;;-6.65;100.00;100877.18;103556;1271;72325;-64
2023/01/11 08:55:19;;;;;;;6.80;4.60;;;;;;;-6.62;100.00;100865.39;103486;1277;73471;-69
2023/01/11 08:57:46;;;;;;;10.80;4.90;;;;;;;-6.52;100.00;100861.42;103481;1270;61851;-63
2023/01/11 09:00:14;;;;;;;7.50;4.70;;;;;;;-6.50;100.00;100864.39;103480;1265;60201;-63
2023/01/11 09:02:44;;;;;;;6.20;4.40;;;;;;;-6.52;100.00;100867.58;103523;1278;73364;-63
2023/01/11 09:05:12;;;;;;;7.40;4.60;;;;;;;-6.53;100.00;100869.55;103504;1270;71103;-64
2023/01/11 09:07:41;;;;;;;10.20;3.60;;;;;;;-6.57;100.00;100875.52;103529;1279;75178;-63
2023/01/11 09:10:09;;;;;;;6.50;4.00;;;;;;;-6.60;100.00;100875.20;103769;1268;60353;-67
2023/01/11 09:12:37;;;;;;;6.00;4.10;;;;;;;-6.62;100.00;100871.18;103695;1277;60066;-64
2023/01/11 09:15:05;;;;;;;7.20;4.40;;;;;;;-6.56;100.00;100875.21;103700;1264;73213;-64
2023/01/11 09:17:33;;;;;;;6.20;4.00;;;;;;;-6.44;100.00;100877.50;103900;1268;70268;-64
2023/01/11 09:20:01;;;;;;;7.50;4.30;;;;;;;-6.36;100.00;100871.67;103585;1270;74370;-63
2023/01/11 09:22:28;;;;;;;6.10;4.60;;;;;;;-6.38;100.00;100870.71;103676;1270;61437;-64
2023/01/11 09:24:59;;;;;;;9.80;5.30;;;;;;;-6.43;100.00;100872.74;103848;1267;62785;-66
2023/01/11 09:27:27;;;;;;;7.30;4.30;;;;;;;-6.45;100.00;100875.73;103579;1264;75266;-61
2023/01/11 09:29:54;;;;;;;;;;;;;;;-6.49;100.00;100876.21;103826;1269;71601;-62
2023/01/11 09:32:22;;;;;;;7.70;3.70;;;;;;;-6.56;100.00;100880.50;103350;1265;72161;-61
2023/01/11 09:34:52;;;;;;;5.80;3.80;;;;;;;-6.57;100.00;100879.08;103660;1281;63356;-63
2023/01/11 09:37:21;;;;;;;8.40;5.20;;;;;;;-6.47;100.00;100889.11;103545;1280;61527;-62
2023/01/11 09:39:50;;;;;;;16.00;5.00;;;;;;;-6.34;100.00;100885.76;103462;1263;74695;-61
2023/01/11 09:42:33;;;;;;;10.00;4.70;;;;;;;-6.28;100.00;100873.42;103707;1271;70248;-62
2023/01/11 09:45:16;;;;;;;11.90;4.30;;;;;;;-6.24;100.00;100870.86;103533;1264;72731;-61
2023/01/11 09:47:48;;;;;;;7.80;4.90;;;;;;;-6.21;100.00;100868.41;103405;1270;61785;-61
2023/01/11 09:50:27;;;;;;;5.90;4.50;;;;;;;-6.20;100.00;100863.51;103430;1270;59765;-61
2023/01/11 09:53:07;;;;;;;7.60;4.20;;;;;;;-6.19;100.00;100858.46;103355;1286;72548;-61
2023/01/11 09:55:39;;;;;;;6.90;4.10;;;;;;;-6.17;100.00;100856.31;103774;1265;72360;-62
2023/01/11 14:22:44;;;;;;;5.90;3.70;;;;;;;-7.54;100.00;100824.55;101936;1295;600773;-57
2023/01/11 14:25:21;;;;;;;8.40;4.90;;;;;;;-7.22;100.00;100831.71;103600;1270;62908;-57
2023/01/11 14:28:11;;;;;;;9.50;5.80;;;;;;;-7.02;100.00;100828.41;103733;1285;62364;-61
2023/01/11 14:31:01;;;;;;;10.20;6.40;;;;;;;-6.83;100.00;100834.58;104319;1257;74163;-63
2023/01/11 14:34:00;;;;;;;12.60;6.50;;;;;;;-6.72;100.00;100836.12;104351;1264;70442;-61
2023/01/11 14:36:47;;;;;;;10.10;6.40;;;;;;;-6.61;100.00;100838.14;103980;1261;176562;-61
2023/01/11 14:39:43;;;;;;;13.20;7.10;;;;;;;-6.51;100.00;100837.23;104157;1263;63700;-63
2023/01/11 14:42:30;;;;;;;14.40;6.70;;;;;;;-6.44;100.00;100829.70;104459;1263;60366;-63
2023/01/11 14:45:20;;;;;;;15.00;7.10;;;;;;;-6.37;100.00;100822.33;104312;1260;74589;-62
2023/01/11 14:48:08;;;;;;;11.30;6.70;;;;;;;-6.37;100.00;100829.16;104174;1270;69542;-63
2023/01/11 14:50:51;;;;;;;10.50;6.50;;;;;;;-6.38;100.00;100827.24;104102;1257;72715;-62
2023/01/11 14:53:25;;;;;;;15.70;7.80;;;;;;;-6.37;100.00;100827.29;104211;1273;62370;-61
2023/01/11 14:55:52;;;;;;;16.50;8.90;;;;;;;-6.35;100.00;100838.11;104156;1261;61149;-61
2023/01/11 14:58:27;;;;;;;15.80;8.40;;;;;;;-6.37;100.00;100840.42;104317;1257;73701;-63
2023/01/11 15:00:54;;;;;;;17.80;8.30;;;;;;;-6.38;100.00;100840.55;104503;1257;70562;-61
2023/01/11 15:03:22;;;;;;;13.20;7.60;;;;;;;-6.37;100.00;100841.77;104660;1258;74603;-61
2023/01/11 15:05:59;;;;;;;13.10;7.80;;;;;;;-6.37;100.00;100849.80;104600;1256;61041;-62
2023/01/11 15:08:27;;;;;;;10.80;6.50;;;;;;;-6.42;100.00;100848.55;104361;1254;61421;-62
2023/01/11 15:10:54;;;;;;;11.70;7.20;;;;;;;-6.45;100.00;100850.46;104422;1254;73511;-62
2023/01/11 15:13:43;;;;;;;12.30;7.40;;;;;;;-6.48;100.00;100854.10;104647;1255;70150;-63
2023/01/11 15:19:32;;;;;;;13.20;7.90;;;;;;;-6.62;100.00;100851.75;105143;1255;64163;-63
2023/01/11 15:22:01;;;;;;;13.80;7.60;;;;;;;-6.65;100.00;100858.42;104387;1256;60436;-63
2023/01/11 15:24:33;;;;;;;11.40;7.60;;;;;;;-6.71;100.00;100857.83;104600;1257;74752;-62
2023/01/11 15:27:01;;;;;;;10.30;7.30;;;;;;;-6.76;100.00;100859.80;104325;1254;69827;-63
2023/01/11 15:29:31;;;;;;;15.60;8.50;;;;;;;-6.79;100.00;100860.36;104431;1264;73031;-63
2023/01/11 15:32:06;;;;;;;15.80;8.50;;;;;;;-6.85;100.00;100854.11;104525;1264;63380;-63
2023/01/11 15:34:33;;;;;;;16.50;9.10;;;;;;;-6.89;100.00;100845.90;104676;1257;60983;-63
2023/01/11 15:37:06;;;;;;;;;;;;;;;-6.92;100.00;100845.91;104825;1253;72554;-63
2023/01/11 15:39:56;;;;;;;17.50;9.00;;;;;;;-7.02;100.00;100836.23;104866;1258;70773;-64
2023/01/11 15:42:33;;;;;;;16.60;9.10;;;;;;;-7.08;100.00;100823.38;104892;1259;73712;-65
2023/01/11 15:45:31;;;;;;;16.10;9.20;;;;;;;-7.14;100.00;100817.80;104944;1254;62250;-64
2023/01/11 15:48:14;;;;;;;14.70;7.80;;;;;;;-7.17;100.00;100822.45;104794;1257;61058;-62
2023/01/11 15:51:02;;;;;;;14.40;8.80;;;;;;;-7.17;100.00;100827.20;104463;1254;75087;-64
2023/01/11 15:53:48;;;;;;;16.30;9.70;;;;;;;-7.16;100.00;100828.97;104467;1267;71544;-63
2023/01/11 15:56:27;;;;;;;16.70;8.50;;;;;;;-7.14;100.00;100820.52;104582;1260;73291;-63
2023/01/11 15:59:19;;;;;;;13.40;8.60;;;;;;;-7.13;100.00;100818.03;104404;1260;62330;-64
2023/01/11 16:02:11;;;;;;;14.40;7.90;;;;;;;-7.13;100.00;100824.65;104416;1254;60785;-63
2023/01/11 16:04:47;;;;;;;18.20;8.80;;;;;;;-7.14;100.00;100827.70;104584;1252;74243;-63
2023/01/11 16:07:41;;;;;;;13.50;8.30;;;;;;;-7.13;100.00;100827.58;104743;1254;69812;-63
2023/01/11 16:10:14;;;;;;;13.90;8.30;;;;;;;-7.13;100.00;100831.99;104302;1259;72475;-64
2023/01/11 16:12:44;;;;;;;14.10;8.30;;;;;;;-7.13;100.00;100839.67;104586;1260;60824;-64
2023/01/11 16:15:47;;;;;;;15.40;8.00;;;;;;;-7.10;100.00;100845.44;104421;1257;61847;-64
2023/01/11 16:18:18;;;;;;;13.40;7.50;;;;;;;-7.08;100.00;100844.70;104261;1260;72818;-63
2023/01/11 16:20:55;;;;;;;15.60;8.30;;;;;;;-7.05;100.00;100840.04;104939;1258;69209;-63
2023/01/11 16:23:23;;;;;;;11.90;8.30;;;;;;;-7.02;100.00;100839.67;104469;1257;72477;-63
2023/01/11 16:25:54;;;;;;;15.80;8.60;;;;;;;-6.98;100.00;100833.38;104554;1252;61558;-63
2023/01/11 16:28:21;;;;;;;18.00;8.70;;;;;;;-6.94;100.00;100837.48;104400;1254;59764;-63
2023/01/11 16:31:01;;;;;;;13.50;8.60;;;;;;;-6.92;100.00;100839.98;104450;1267;74134;-63
2023/01/11 16:33:30;;;;;;;14.10;8.90;;;;;;;-6.90;100.00;100842.11;104532;1255;72279;-63
2023/01/11 16:36:16;;;;;;;12.40;7.70;;;;;;;-6.87;100.00;100839.88;104457;1269;72879;-64
2023/01/11 16:39:06;;;;;;;11.90;7.70;;;;;;;-6.85;100.00;100842.83;104469;1254;60769;-63
2023/01/11 16:41:56;;;;;;;12.60;7.40;;;;;;;-6.82;100.00;100850.48;104580;1252;60678;-65
2023/01/11 16:44:50;;;;;;;14.50;8.00;;;;;;;-6.75;100.00;100849.11;104357;1272;73588;-61
2023/01/11 16:47:18;;;;;;;11.10;6.80;;;;;;;-6.72;100.00;100851.98;104429;1254;69315;-61
2023/01/11 16:49:48;;;;;;;13.00;7.90;;;;;;;-6.69;100.00;100852.80;104240;1270;72714;-62
2023/01/11 16:52:27;;;;;;;13.50;7.40;;;;;;;-6.65;100.00;100848.89;104470;1267;61646;-63
2023/01/11 16:54:55;;;;;;;16.50;7.00;;;;;;;-6.61;100.00;100849.77;104464;1258;61030;-64
2023/01/11 16:57:29;;;;;;;10.50;6.50;;;;;;;-6.58;100.00;100855.67;104890;1252;74682;-63
2023/01/11 17:00:02;;;;;;;9.10;6.00;;;;;;;-6.55;100.00;100853.27;104695;1254;70573;-61
2023/01/11 17:02:38;;;;;;;12.20;7.10;;;;;;;-6.52;100.00;100847.77;104457;1260;72224;-61
2023/01/11 17:05:22;;;;;;;16.10;7.60;;;;;;;-6.49;100.00;100841.92;104607;1257;61621;-62
2023/01/11 17:07:49;;;;;;;14.10;8.00;;;;;;;-6.49;100.00;100837.70;104820;1253;61619;-62
2023/01/11 17:10:23;;;;;;;15.30;7.40;;;;;;;-6.48;100.00;100836.33;104682;1254;73297;-62
2023/01/11 17:16:13;;;;;;;14.30;7.20;;;;;;;-6.57;100.00;100832.17;104624;1254;74414;-65
2023/01/11 17:18:40;;;;;;;13.80;6.50;;;;;;;-6.55;100.00;100828.00;104813;1254;61320;-63
2023/01/11 17:21:17;;;;;;;;;;;;;;;-6.55;100.00;100822.05;104446;1257;60237;-64
2023/01/11 17:23:45;;;;;;;11.70;7.10;;;;;;;-6.62;100.00;100823.08;104277;1257;75796;-64
2023/01/11 17:26:14;;;;;;;12.60;6.70;;;;;;;-6.62;100.00;100824.80;104298;1254;69823;-64
2023/01/11 17:28:46;;;;;;;14.40;7.10;;;;;;;-6.60;100.00;100823.53;104282;1254;71780;-63
2023/01/11 17:31:21;;;;;;;11.40;6.80;;;;;;;-6.60;100.00;100828.80;105319;1254;61569;-63
2023/01/11 17:34:00;;;;;;;12.90;7.50;;;;;;;-6.60;100.00;100828.48;104830;1252;60755;-63
2023/01/11 17:36:27;;;;;;;13.40;7.30;;;;;;;-6.62;100.00;100830.77;104491;1258;75422;-62
2023/01/11 17:38:56;;;;;;;10.70;6.90;;;;;;;-6.63;100.00;100823.72;104514;1254;70224;-64
2023/01/11 17:47:07;;;;;;;16.90;7.20;;;;;;;-6.73;100.00;100834.52;104718;1254;61252;-63
2023/01/11 17:49:34;;;;;;;12.20;6.50;;;;;;;-6.77;100.00;100833.67;104352;1271;74073;-62
2023/01/11 17:52:09;;;;;;;11.90;6.90;;;;;;;-6.82;100.00;100827.98;104702;1254;69578;-63
2023/01/11 17:54:36;;;;;;;13.10;6.80;;;;;;;-6.88;100.00;100825.67;104594;1260;72343;-63
2023/01/11 17:57:03;;;;;;;15.60;7.60;;;;;;;-6.91;100.00;100824.52;104778;1254;60769;-63
2023/01/11 17:59:30;;;;;;;9.90;6.40;;;;;;;-6.94;100.00;100826.40;104440;1252;61132;-66
2023/01/11 18:02:01;;;;;;;12.80;7.10;;;;;;;-6.93;100.00;100817.56;104711;1269;75512;-63
